Time;durP1;ratioP1;P1;durP2;ratioP2;P2;SDS_P1;SDS_P2;PMS_P1;PMS_P2;Temp;Humidity;BMP_temperature;BMP_pressure;BME280_temperature;BME280_humidity;BME280_pressure;Samples;Min_cycle;Max_cycle;Signal;HPM_P1;HPM_P2
2021/07/24 00:00:27;;;;;;;1.15;0.93;;;17.30;70.80;;;;;;5052593;28;20021;-77
2021/07/24 00:02:53;;;;;;;2.03;0.95;;;17.30;70.80;;;;;;5053078;28;20047;-77
2021/07/24 00:05:19;;;;;;;1.30;1.10;;;17.30;70.90;;;;;;5052957;28;20029;-77
2021/07/24 00:07:44;;;;;;;1.35;1.10;;;17.20;70.90;;;;;;5052958;28;20093;-77
2021/07/24 00:10:10;;;;;;;1.67;1.27;;;17.20;71.00;;;;;;5072884;28;20021;-77
2021/07/24 00:12:35;;;;;;;1.35;1.08;;;17.20;71.00;;;;;;5070927;28;20024;-77
2021/07/24 00:15:01;;;;;;;1.23;1.05;;;17.20;71.00;;;;;;5072631;28;20024;-77
2021/07/24 00:17:26;;;;;;;1.20;1.02;;;17.20;71.10;;;;;;5072800;28;20067;-77
2021/07/24 00:19:52;;;;;;;0.93;0.93;;;17.20;71.10;;;;;;5072773;28;20419;-77
2021/07/24 00:22:17;;;;;;;1.08;0.88;;;17.20;71.20;;;;;;5072786;28;20047;-77
2021/07/24 00:24:43;;;;;;;0.75;0.75;;;17.20;71.20;;;;;;5073138;28;20020;-77
2021/07/24 00:27:10;;;;;;;0.95;0.85;;;17.20;71.20;;;;;;5054799;28;20044;-77
2021/07/24 00:29:36;;;;;;;1.73;1.27;;;17.20;71.20;;;;;;5072223;28;20025;-77
2021/07/24 00:32:03;;;;;;;1.48;1.13;;;17.20;71.30;;;;;;5072743;28;20017;-77
2021/07/24 00:34:29;;;;;;;1.33;1.15;;;17.20;71.40;;;;;;5072790;28;20025;-77
2021/07/24 00:36:56;;;;;;;1.17;1.02;;;17.10;71.40;;;;;;5071067;28;20078;-77
2021/07/24 00:39:21;;;;;;;1.13;1.05;;;17.10;71.50;;;;;;5056267;28;20013;-77
2021/07/24 00:41:52;;;;;;;1.52;1.13;;;17.10;71.50;;;;;;5056224;28;20056;-77
2021/07/24 00:44:20;;;;;;;1.30;1.10;;;17.10;71.60;;;;;;5038057;28;20020;-78
2021/07/24 00:46:49;;;;;;;1.58;1.48;;;17.10;71.60;;;;;;5056189;28;20021;-77
2021/07/24 00:49:17;;;;;;;1.27;1.00;;;17.10;71.70;;;;;;5056259;28;20036;-77
2021/07/24 00:51:47;;;;;;;1.65;1.40;;;17.10;71.70;;;;;;5055805;28;20076;-77
2021/07/24 00:54:13;;;;;;;1.63;1.10;;;17.10;71.70;;;;;;5056158;28;20013;-77
2021/07/24 00:56:43;;;;;;;1.63;1.10;;;17.10;71.80;;;;;;5056041;28;20031;-77
2021/07/24 00:59:09;;;;;;;1.38;1.27;;;17.10;71.80;;;;;;5055566;28;20096;-77
2021/07/24 01:01:36;;;;;;;2.10;1.08;;;17.00;71.90;;;;;;5056171;28;20108;-78
2021/07/24 01:04:03;;;;;;;1.08;0.93;;;17.00;71.90;;;;;;5055775;28;20067;-78
2021/07/24 01:06:30;;;;;;;1.05;0.90;;;17.00;72.00;;;;;;5041788;28;20021;-77
2021/07/24 01:08:56;;;;;;;1.80;1.30;;;17.00;72.00;;;;;;5069718;28;20500;-78
2021/07/24 01:11:21;;;;;;;1.75;1.20;;;17.00;72.00;;;;;;5075853;28;20049;-78
2021/07/24 01:13:49;;;;;;;1.63;1.25;;;16.90;72.60;;;;;;5075528;28;20021;-77
2021/07/24 01:16:15;;;;;;;1.20;1.02;;;17.00;72.00;;;;;;5075615;28;20533;-77
2021/07/24 01:18:40;;;;;;;1.85;1.45;;;16.90;72.60;;;;;;5075843;28;20103;-78
2021/07/24 01:21:08;;;;;;;1.20;1.10;;;16.90;72.10;;;;;;5065288;28;20020;-77
2021/07/24 01:23:34;;;;;;;1.20;1.10;;;16.80;72.20;;;;;;5055388;28;20553;-78
2021/07/24 01:26:00;;;;;;;1.35;1.10;;;16.80;72.20;;;;;;5055444;28;20021;-78
2021/07/24 01:28:34;;;;;;;2.00;1.65;;;16.80;72.30;;;;;;5037218;28;20359;-78
2021/07/24 01:31:03;;;;;;;1.45;1.10;;;16.80;72.40;;;;;;5058745;28;20103;-77
2021/07/24 01:33:29;;;;;;;2.17;1.30;;;16.70;72.40;;;;;;5074933;28;20138;-78
2021/07/24 01:35:55;;;;;;;1.30;1.08;;;16.70;72.50;;;;;;5075218;28;20025;-78
2021/07/24 01:38:21;;;;;;;2.28;1.40;;;16.70;72.60;;;;;;5075279;28;20024;-78
2021/07/24 01:40:47;;;;;;;1.55;1.15;;;16.70;73.30;;;;;;5075168;28;20024;-78
2021/07/24 01:43:13;;;;;;;2.17;1.35;;;16.60;72.70;;;;;;5074525;28;20508;-78
2021/07/24 01:45:40;;;;;;;1.73;1.08;;;16.60;72.80;;;;;;5075259;28;20032;-77
2021/07/24 01:48:14;;;;;;;2.30;1.10;;;16.60;72.90;;;;;;5074507;28;20025;-78
2021/07/24 01:53:27;;;;;;;1.70;1.20;;;16.50;73.00;;;;;;5075322;28;20071;-78
2021/07/24 01:56:03;;;;;;;1.30;0.98;;;16.50;73.00;;;;;;5072052;28;20385;-78
2021/07/24 01:58:32;;;;;;;2.47;1.83;;;16.50;73.10;;;;;;5054738;28;20025;-78
2021/07/24 02:01:00;;;;;;;1.38;1.08;;;16.40;73.10;;;;;;5054795;28;20525;-78
2021/07/24 02:03:30;;;;;;;2.25;1.73;;;16.40;73.10;;;;;;5054754;28;20040;-77
2021/07/24 02:05:56;;;;;;;1.63;1.42;;;16.40;73.20;;;;;;5054732;28;20118;-77
2021/07/24 02:08:24;;;;;;;1.52;1.20;;;16.40;73.20;;;;;;5054616;28;20493;-77
2021/07/24 02:10:51;;;;;;;1.25;1.15;;;16.40;73.30;;;;;;5054212;28;20074;-78
2021/07/24 02:13:19;;;;;;;1.30;1.20;;;16.30;73.30;;;;;;5054674;28;20478;-76
2021/07/24 02:15:44;;;;;;;1.88;1.38;;;16.40;73.40;;;;;;5054487;28;20029;-77
2021/07/24 02:18:16;;;;;;;1.25;1.13;;;16.30;73.40;;;;;;5054533;28;20027;-77
2021/07/24 02:20:46;;;;;;;1.70;1.30;;;16.30;73.40;;;;;;5062167;28;20384;-76
2021/07/24 02:23:16;;;;;;;1.60;1.20;;;16.30;73.50;;;;;;5074552;28;20028;-76
2021/07/24 02:25:42;;;;;;;1.00;1.00;;;16.20;73.60;;;;;;5073846;28;20035;-76
2021/07/24 02:28:07;;;;;;;1.95;1.23;;;16.20;73.50;;;;;;5074210;28;20020;-76
2021/07/24 02:30:33;;;;;;;0.88;0.88;;;16.20;73.60;;;;;;5074065;28;20478;-81
2021/07/24 02:32:59;;;;;;;1.98;1.42;;;16.10;73.70;;;;;;5074429;28;20063;-82
2021/07/24 02:35:24;;;;;;;1.10;1.00;;;16.10;73.60;;;;;;5067101;28;20032;-82
2021/07/24 02:37:50;;;;;;;1.42;1.20;;;16.10;74.40;;;;;;5054247;28;20351;-81
2021/07/24 02:40:16;;;;;;;1.58;1.20;;;16.20;73.90;;;;;;5053682;28;20017;-78
2021/07/24 02:42:42;;;;;;;1.20;1.10;;;16.10;73.90;;;;;;5053730;28;20032;-78
2021/07/24 02:45:09;;;;;;;1.25;1.10;;;16.10;73.90;;;;;;5054001;28;20021;-77
2021/07/24 02:47:34;;;;;;;1.23;1.13;;;16.10;73.90;;;;;;5053997;28;20096;-78
2021/07/24 02:50:00;;;;;;;2.45;1.58;;;16.10;73.90;;;;;;5053931;28;20460;-78
2021/07/24 02:52:25;;;;;;;1.60;1.15;;;16.10;74.00;;;;;;5053646;28;20051;-78
2021/07/24 02:54:51;;;;;;;1.65;1.25;;;16.10;74.10;;;;;;5053356;28;20477;-79
2021/07/24 02:57:17;;;;;;;1.05;1.00;;;16.00;74.10;;;;;;5053750;28;20095;-79
2021/07/24 02:59:42;;;;;;;1.27;1.02;;;16.00;74.10;;;;;;5052907;28;20075;-79
2021/07/24 03:02:08;;;;;;;0.80;0.80;;;16.00;74.20;;;;;;5053652;28;20502;-80
2021/07/24 03:04:33;;;;;;;1.83;1.17;;;16.00;74.30;;;;;;5053450;28;20026;-86
2021/07/24 03:06:59;;;;;;;1.42;1.15;;;16.00;74.30;;;;;;5053710;28;20028;-80
2021/07/24 03:09:24;;;;;;;1.65;1.00;;;16.00;74.30;;;;;;5053207;28;20078;-80
2021/07/24 03:11:50;;;;;;;1.17;1.02;;;16.00;74.40;;;;;;5053733;28;20096;-81
2021/07/24 03:14:16;;;;;;;1.33;1.15;;;16.00;74.40;;;;;;5053431;28;20500;-80
2021/07/24 03:16:41;;;;;;;1.88;1.25;;;16.00;75.10;;;;;;5053712;28;20039;-80
2021/07/24 03:19:06;;;;;;;1.63;1.15;;;15.90;74.40;;;;;;5053426;28;20071;-80
2021/07/24 03:21:32;;;;;;;1.55;1.30;;;15.90;74.50;;;;;;5053331;28;20057;-80
2021/07/24 03:23:58;;;;;;;2.60;1.48;;;15.90;74.60;;;;;;5052984;28;20052;-81
2021/07/24 03:26:23;;;;;;;1.52;1.13;;;15.90;74.60;;;;;;5053404;28;20096;-81
2021/07/24 03:28:49;;;;;;;1.73;1.25;;;15.90;74.70;;;;;;5053359;28;20029;-81
2021/07/24 03:31:15;;;;;;;1.33;1.10;;;15.90;74.70;;;;;;5053504;28;20021;-80
2021/07/24 03:33:40;;;;;;;1.80;1.42;;;15.90;74.70;;;;;;5053226;28;20544;-81
2021/07/24 03:36:06;;;;;;;1.27;0.98;;;15.90;74.70;;;;;;5053300;28;20497;-81
2021/07/24 03:38:32;;;;;;;1.77;1.17;;;15.80;74.80;;;;;;5052696;28;20108;-80
2021/07/24 03:40:58;;;;;;;1.60;1.25;;;15.90;74.80;;;;;;5053098;28;20023;-80
2021/07/24 03:43:24;;;;;;;1.30;1.20;;;15.80;74.80;;;;;;5053102;28;20033;-80
2021/07/24 03:45:50;;;;;;;1.33;1.05;;;15.90;74.90;;;;;;5053173;28;20029;-81
2021/07/24 03:48:15;;;;;;;1.90;1.50;;;15.80;74.90;;;;;;5052961;28;20107;-81
2021/07/24 03:50:42;;;;;;;1.20;1.10;;;15.80;74.90;;;;;;5052967;28;20041;-81
2021/07/24 03:53:08;;;;;;;1.17;1.00;;;15.80;75.00;;;;;;5052651;28;20056;-80
2021/07/24 03:55:34;;;;;;;1.67;1.00;;;15.80;75.10;;;;;;5053026;28;20374;-81
2021/07/24 03:58:01;;;;;;;1.42;1.02;;;15.80;75.20;;;;;;5035242;28;20037;-81
2021/07/24 04:00:26;;;;;;;1.65;1.15;;;15.80;75.20;;;;;;5053005;28;20017;-81
2021/07/24 04:02:53;;;;;;;2.00;1.50;;;15.80;75.10;;;;;;5052807;28;20083;-81
2021/07/24 04:05:18;;;;;;;1.67;1.20;;;15.80;75.10;;;;;;5053027;28;20025;-81
2021/07/24 04:07:45;;;;;;;1.65;1.27;;;15.90;75.10;;;;;;5052702;28;20095;-80
2021/07/24 04:10:12;;;;;;;1.63;1.20;;;15.80;75.10;;;;;;5052996;28;20060;-80
2021/07/24 04:12:39;;;;;;;1.80;1.20;;;15.90;75.20;;;;;;5056865;28;20025;-81
2021/07/24 04:15:06;;;;;;;1.67;1.00;;;16.00;75.20;;;;;;5056804;28;20084;-80
2021/07/24 04:17:32;;;;;;;1.48;1.30;;;16.00;75.10;;;;;;5056814;28;20044;-81
2021/07/24 04:19:58;;;;;;;1.23;1.02;;;16.00;75.10;;;;;;5056807;28;20109;-81
2021/07/24 04:22:23;;;;;;;1.95;1.30;;;16.00;75.10;;;;;;5056258;28;20108;-80
2021/07/24 04:24:49;;;;;;;1.38;1.15;;;16.10;75.10;;;;;;5056540;28;20032;-80
2021/07/24 04:27:15;;;;;;;2.05;1.35;;;16.20;75.10;;;;;;5056689;28;20537;-81
2021/07/24 04:29:41;;;;;;;1.58;1.23;;;16.20;75.10;;;;;;5056541;28;20021;-81
2021/07/24 04:32:07;;;;;;;1.70;1.20;;;16.20;75.00;;;;;;5056433;28;20025;-81
2021/07/24 04:34:32;;;;;;;1.38;1.27;;;16.30;75.10;;;;;;5056622;28;20032;-81
2021/07/24 04:36:58;;;;;;;1.45;1.27;;;16.30;75.00;;;;;;5056099;28;20075;-81
2021/07/24 04:39:24;;;;;;;2.13;1.40;;;16.40;75.00;;;;;;5056472;28;20033;-81
2021/07/24 04:41:50;;;;;;;1.35;1.10;;;16.50;74.90;;;;;;5056456;28;20017;-81
2021/07/24 04:44:15;;;;;;;1.50;1.05;;;16.50;74.80;;;;;;5056436;28;20061;-81
2021/07/24 04:46:41;;;;;;;2.17;1.20;;;16.60;74.80;;;;;;5056127;28;20473;-81
2021/07/24 04:49:07;;;;;;;1.80;1.20;;;16.60;74.80;;;;;;5056341;28;20129;-81
2021/07/24 04:51:36;;;;;;;1.63;1.00;;;16.60;74.80;;;;;;5055706;28;20052;-81
2021/07/24 04:54:04;;;;;;;1.33;1.23;;;16.70;74.80;;;;;;5038300;28;20035;-81
2021/07/24 04:56:31;;;;;;;1.10;1.00;;;16.70;74.80;;;;;;5056108;28;20013;-81
2021/07/24 04:58:57;;;;;;;1.30;1.17;;;16.80;74.80;;;;;;5056009;28;20361;-81
2021/07/24 05:01:22;;;;;;;1.25;1.10;;;16.80;74.80;;;;;;5055834;28;20025;-81
2021/07/24 05:03:49;;;;;;;1.40;1.00;;;16.80;74.80;;;;;;5055887;28;20029;-81
2021/07/24 05:06:14;;;;;;;1.10;0.90;;;16.90;74.80;;;;;;5055423;28;20017;-81
2021/07/24 05:08:40;;;;;;;1.40;1.23;;;17.00;74.80;;;;;;5055970;28;20030;-81
2021/07/24 05:11:06;;;;;;;1.08;0.90;;;17.00;74.70;;;;;;5055693;28;20474;-81
2021/07/24 05:13:31;;;;;;;1.55;1.00;;;17.10;74.70;;;;;;5055824;28;20090;-81
2021/07/24 05:15:57;;;;;;;1.67;1.00;;;17.10;74.60;;;;;;5055709;28;20017;-81
2021/07/24 05:18:23;;;;;;;0.70;0.70;;;17.20;74.60;;;;;;5055609;28;20032;-81
2021/07/24 05:20:48;;;;;;;0.90;0.90;;;17.30;74.60;;;;;;5055139;28;20028;-81
2021/07/24 05:23:14;;;;;;;0.70;0.70;;;17.40;74.60;;;;;;5054705;28;20033;-82
2021/07/24 05:25:43;;;;;;;1.50;1.00;;;17.40;74.40;;;;;;5055520;28;20099;-81
2021/07/24 05:28:09;;;;;;;0.82;0.82;;;17.50;74.40;;;;;;5055529;28;20025;-81
2021/07/24 05:30:34;;;;;;;1.20;1.05;;;17.50;74.40;;;;;;5055390;28;20506;-81
2021/07/24 05:33:00;;;;;;;1.02;0.90;;;17.60;74.30;;;;;;5055539;28;20096;-81
2021/07/24 05:35:26;;;;;;;0.82;0.82;;;17.70;74.20;;;;;;5054991;28;20465;-81
2021/07/24 05:37:52;;;;;;;1.08;1.08;;;17.80;74.20;;;;;;5055354;28;20031;-81
2021/07/24 05:40:17;;;;;;;1.00;0.80;;;17.90;74.10;;;;;;5055392;28;20031;-81
2021/07/24 05:42:43;;;;;;;1.20;1.00;;;17.90;74.00;;;;;;5055279;28;20069;-81
2021/07/24 05:45:08;;;;;;;1.40;1.30;;;18.00;74.00;;;;;;5055123;28;20017;-81
2021/07/24 05:47:34;;;;;;;1.30;1.20;;;18.00;74.00;;;;;;5055155;28;20021;-81
2021/07/24 05:50:01;;;;;;;0.85;0.68;;;18.10;74.10;;;;;;5054776;28;20021;-81
2021/07/24 05:52:26;;;;;;;1.38;1.00;;;18.20;74.00;;;;;;5054960;28;20041;-81
2021/07/24 05:54:52;;;;;;;1.30;1.20;;;18.30;73.90;;;;;;5055057;28;20169;-81
2021/07/24 05:57:18;;;;;;;0.70;0.70;;;18.40;73.80;;;;;;5054997;28;20384;-81
2021/07/24 05:59:44;;;;;;;1.00;0.90;;;18.40;73.70;;;;;;5054904;28;20021;-82
2021/07/24 06:02:14;;;;;;;1.02;0.93;;;18.50;73.60;;;;;;5054851;28;20029;-81
2021/07/24 06:04:42;;;;;;;0.90;0.90;;;18.60;73.70;;;;;;5054411;28;20020;-81
2021/07/24 06:07:07;;;;;;;1.55;1.20;;;18.60;73.70;;;;;;5054858;28;20021;-81
2021/07/24 06:09:33;;;;;;;1.90;1.38;;;18.60;73.70;;;;;;5054887;28;20031;-81
2021/07/24 06:11:58;;;;;;;2.35;1.20;;;18.70;73.70;;;;;;5054690;28;20029;-82
2021/07/24 06:14:24;;;;;;;2.33;1.30;;;18.70;73.60;;;;;;5054492;28;20271;-81
2021/07/24 06:16:50;;;;;;;1.35;1.10;;;18.60;74.50;;;;;;5054297;28;20537;-81
2021/07/24 06:19:16;;;;;;;1.15;0.90;;;18.70;74.00;;;;;;5054524;28;20024;-81
2021/07/24 06:21:42;;;;;;;1.60;1.23;;;18.70;74.00;;;;;;5054459;28;20025;-82
2021/07/24 06:24:08;;;;;;;1.42;1.08;;;18.80;73.80;;;;;;5054542;28;20060;-81
2021/07/24 06:26:40;;;;;;;1.13;0.93;;;18.80;73.80;;;;;;5054364;28;20025;-82
2021/07/24 06:29:06;;;;;;;1.48;1.30;;;18.90;73.70;;;;;;5054324;28;20146;-81
2021/07/24 06:31:32;;;;;;;2.03;1.23;;;18.90;73.70;;;;;;5053870;28;20539;-81
2021/07/24 06:33:59;;;;;;;1.52;1.10;;;19.00;73.60;;;;;;5054282;28;20100;-81
2021/07/24 06:36:25;;;;;;;1.45;1.00;;;19.10;73.60;;;;;;5054205;28;20493;-81
2021/07/24 06:38:51;;;;;;;0.98;0.88;;;19.20;73.50;;;;;;5054198;28;20031;-81
2021/07/24 06:41:16;;;;;;;1.52;0.93;;;19.20;73.30;;;;;;5053989;28;20064;-81
2021/07/24 06:43:42;;;;;;;1.20;1.10;;;19.30;73.30;;;;;;5053970;28;20029;-81
2021/07/24 06:46:12;;;;;;;0.93;0.90;;;19.40;73.40;;;;;;5035698;28;20469;-81
2021/07/24 06:48:38;;;;;;;0.95;0.80;;;19.40;73.40;;;;;;5054079;28;20385;-81
2021/07/24 06:51:07;;;;;;;1.10;0.88;;;19.40;73.40;;;;;;5053807;28;20516;-81
2021/07/24 06:53:34;;;;;;;1.45;1.20;;;19.50;73.50;;;;;;5053833;28;20078;-81
2021/07/24 06:56:00;;;;;;;1.48;0.93;;;19.50;73.60;;;;;;5036032;28;20110;-81
2021/07/24 06:58:26;;;;;;;1.10;1.00;;;19.50;73.60;;;;;;5035663;28;20075;-82
2021/07/24 07:00:51;;;;;;;1.00;0.90;;;19.50;73.60;;;;;;5053457;28;20021;-81
2021/07/24 07:03:17;;;;;;;0.88;0.80;;;19.50;73.60;;;;;;5053629;28;20033;-81
2021/07/24 07:05:42;;;;;;;2.33;1.15;;;19.50;73.50;;;;;;5053586;28;20021;-81
2021/07/24 07:08:08;;;;;;;1.58;1.40;;;19.50;73.60;;;;;;5053580;28;20070;-81
2021/07/24 07:10:33;;;;;;;0.85;0.70;;;19.60;73.60;;;;;;5053358;28;20021;-81
2021/07/24 07:12:59;;;;;;;2.97;0.88;;;19.60;73.60;;;;;;5053538;28;20021;-81
2021/07/24 07:15:26;;;;;;;1.10;1.00;;;19.70;73.50;;;;;;5035124;28;20509;-81
2021/07/24 07:17:52;;;;;;;1.40;1.02;;;19.80;73.40;;;;;;5053388;28;20021;-81
2021/07/24 07:20:17;;;;;;;1.15;0.98;;;19.90;73.40;;;;;;5053428;28;20024;-81
2021/07/24 07:22:43;;;;;;;0.93;0.93;;;19.90;73.30;;;;;;5053300;28;20497;-81
2021/07/24 07:25:09;;;;;;;1.48;1.02;;;20.00;73.20;;;;;;5035449;28;20021;-81
2021/07/24 07:27:39;;;;;;;0.88;0.88;;;20.10;73.10;;;;;;5035247;28;20032;-81
2021/07/24 07:30:05;;;;;;;1.75;1.50;;;20.20;72.90;;;;;;5052989;28;20025;-81
2021/07/24 07:32:31;;;;;;;1.23;0.88;;;20.30;73.00;;;;;;5053392;28;20052;-81
2021/07/24 07:34:56;;;;;;;1.40;1.05;;;20.40;72.90;;;;;;5053367;28;20053;-82
2021/07/24 07:37:22;;;;;;;1.13;0.93;;;20.40;72.80;;;;;;5053266;28;20028;-81
2021/07/24 07:39:47;;;;;;;1.30;1.20;;;20.50;72.70;;;;;;5052993;28;20017;-81
2021/07/24 07:42:13;;;;;;;1.17;1.08;;;20.60;72.70;;;;;;5053100;28;20033;-81
2021/07/24 07:44:38;;;;;;;1.40;1.30;;;20.70;72.60;;;;;;5052660;28;20398;-81
2021/07/24 07:47:04;;;;;;;1.02;0.98;;;20.80;72.60;;;;;;5052595;28;20075;-81
2021/07/24 07:49:30;;;;;;;1.27;1.00;;;20.80;72.50;;;;;;5052960;28;20036;-81
2021/07/24 07:51:55;;;;;;;1.38;1.25;;;20.80;72.40;;;;;;5052860;28;20099;-81
2021/07/24 07:54:21;;;;;;;1.00;0.95;;;20.80;72.50;;;;;;5053096;28;20024;-81
2021/07/24 07:56:46;;;;;;;1.17;0.98;;;20.90;72.60;;;;;;5053059;28;20446;-81
2021/07/24 07:59:12;;;;;;;1.45;1.13;;;21.00;72.60;;;;;;5052550;28;20075;-81
2021/07/24 08:01:37;;;;;;;1.85;1.17;;;21.00;72.50;;;;;;5052973;28;20386;-81
2021/07/24 08:04:03;;;;;;;1.02;1.02;;;21.10;72.50;;;;;;5052813;28;20108;-81
2021/07/24 08:06:28;;;;;;;1.48;1.00;;;21.20;72.30;;;;;;5052952;28;20477;-81
2021/07/24 08:08:54;;;;;;;1.60;1.10;;;21.30;72.20;;;;;;5052725;28;20036;-81
2021/07/24 08:11:19;;;;;;;1.10;1.00;;;21.40;72.20;;;;;;5052755;28;20024;-81
2021/07/24 08:13:45;;;;;;;0.75;0.75;;;21.50;72.10;;;;;;5052376;28;20033;-81
2021/07/24 08:16:15;;;;;;;1.13;0.90;;;21.60;71.80;;;;;;5052883;28;20025;-81
2021/07/24 08:18:41;;;;;;;1.33;0.90;;;21.70;71.70;;;;;;5052737;28;20108;-81
2021/07/24 08:21:06;;;;;;;1.15;1.05;;;21.80;71.70;;;;;;5052817;28;20013;-81
2021/07/24 08:23:32;;;;;;;1.10;1.00;;;21.90;71.70;;;;;;5034766;28;20244;-82
2021/07/24 08:25:57;;;;;;;1.02;0.93;;;22.00;71.70;;;;;;5052682;28;20028;-81
2021/07/24 08:28:27;;;;;;;1.10;1.00;;;22.10;71.70;;;;;;5052359;28;20029;-81
2021/07/24 08:30:53;;;;;;;1.05;1.00;;;22.20;71.60;;;;;;5034723;28;20448;-81
2021/07/24 08:33:19;;;;;;;1.40;1.27;;;22.30;71.60;;;;;;5052619;28;20053;-81
2021/07/24 08:35:44;;;;;;;1.35;1.10;;;22.50;71.50;;;;;;5052673;28;20028;-82
2021/07/24 08:38:10;;;;;;;1.52;1.25;;;22.60;71.30;;;;;;5052560;28;20489;-82
2021/07/24 08:40:37;;;;;;;0.98;0.98;;;22.70;71.10;;;;;;5052666;28;20043;-82
2021/07/24 08:43:07;;;;;;;1.77;1.40;;;22.80;71.00;;;;;;5052190;28;20037;-82
2021/07/24 08:45:33;;;;;;;1.25;1.15;;;22.80;71.20;;;;;;5052532;28;20048;-82
2021/07/24 08:48:00;;;;;;;1.58;1.10;;;22.90;71.20;;;;;;5052572;28;20029;-81
2021/07/24 08:50:26;;;;;;;1.20;1.17;;;23.00;71.10;;;;;;5052517;28;20094;-80
2021/07/24 08:52:54;;;;;;;1.52;1.42;;;23.10;70.80;;;;;;5052392;28;20037;-81
2021/07/24 08:55:22;;;;;;;1.10;0.95;;;23.30;70.70;;;;;;5052473;28;20048;-81
2021/07/24 08:57:50;;;;;;;1.60;1.10;;;23.40;70.60;;;;;;5053096;28;20499;-81
2021/07/24 09:00:18;;;;;;;1.52;1.10;;;23.40;70.60;;;;;;5056068;28;20045;-82
2021/07/24 09:02:46;;;;;;;1.95;1.40;;;23.40;70.70;;;;;;5055832;28;20035;-82
2021/07/24 09:05:14;;;;;;;0.70;0.70;;;23.40;70.70;;;;;;5055829;28;20497;-81
2021/07/24 09:07:45;;;;;;;1.20;1.10;;;23.40;70.70;;;;;;5056074;28;20025;-82
2021/07/24 09:10:11;;;;;;;1.00;0.82;;;23.50;70.70;;;;;;5055834;28;20028;-81
2021/07/24 09:12:39;;;;;;;1.10;1.00;;;23.60;70.70;;;;;;5055332;28;20087;-82
2021/07/24 09:15:07;;;;;;;1.30;1.20;;;23.70;70.50;;;;;;5055702;28;20468;-82
2021/07/24 09:17:33;;;;;;;3.05;1.55;;;23.80;70.50;;;;;;5055792;28;20036;-81
2021/07/24 09:19:59;;;;;;;1.85;1.20;;;23.90;70.20;;;;;;5055508;28;20017;-81
2021/07/24 09:22:32;;;;;;;2.17;1.40;;;24.00;70.10;;;;;;5055585;28;20478;-82
2021/07/24 09:25:30;;;;;;;2.08;1.50;;;24.10;69.90;;;;;;5055476;28;20017;-81
2021/07/24 09:27:56;;;;;;;1.42;1.30;;;24.10;70.10;;;;;;5051274;28;20048;-81
2021/07/24 09:30:24;;;;;;;1.40;1.30;;;24.20;70.00;;;;;;5055489;28;20017;-81
2021/07/24 09:33:05;;;;;;;1.30;1.20;;;24.40;69.80;;;;;;5055859;28;20055;-81
2021/07/24 09:35:54;;;;;;;2.22;1.58;;;24.40;69.60;;;;;;5055271;28;20024;-82
2021/07/24 09:38:33;;;;;;;1.30;1.20;;;24.50;69.80;;;;;;5044872;28;20388;-82
2021/07/24 09:41:01;;;;;;;1.08;0.98;;;24.60;69.80;;;;;;5054808;28;20477;-82
2021/07/24 09:43:41;;;;;;;1.30;1.20;;;24.60;69.60;;;;;;5055049;28;20079;-82
2021/07/24 09:46:10;;;;;;;1.55;1.30;;;24.60;69.80;;;;;;5055248;28;20429;-82
2021/07/24 09:48:36;;;;;;;1.20;1.10;;;24.60;69.90;;;;;;5055212;28;20029;-82
2021/07/24 09:51:02;;;;;;;1.35;1.25;;;24.50;70.00;;;;;;5054936;28;20448;-82
2021/07/24 09:53:34;;;;;;;1.58;1.40;;;24.50;70.00;;;;;;5054890;28;20029;-82
2021/07/24 09:56:00;;;;;;;1.42;1.33;;;24.60;70.10;;;;;;5054615;28;20017;-82
2021/07/24 09:58:26;;;;;;;1.48;1.38;;;24.50;70.00;;;;;;5054957;28;20546;-82
2021/07/24 10:01:02;;;;;;;0.95;0.88;;;24.60;70.00;;;;;;5054792;28;20036;-82
2021/07/24 10:03:28;;;;;;;1.85;1.13;;;24.70;69.90;;;;;;5054677;28;20029;-82
2021/07/24 10:05:55;;;;;;;1.13;1.05;;;24.60;69.90;;;;;;5054702;28;20032;-82
2021/07/24 10:08:21;;;;;;;1.52;1.30;;;24.70;69.90;;;;;;5054261;28;20024;-82
2021/07/24 10:10:48;;;;;;;1.35;1.25;;;24.70;69.90;;;;;;5054341;28;20025;-81
2021/07/24 10:13:15;;;;;;;1.67;1.33;;;24.70;70.00;;;;;;5054661;28;20052;-82
2021/07/24 10:15:46;;;;;;;1.48;1.23;;;24.70;69.90;;;;;;5054686;28;20068;-81
2021/07/24 10:18:14;;;;;;;1.65;1.27;;;24.60;69.90;;;;;;5054490;28;20032;-82
2021/07/24 10:20:42;;;;;;;1.20;1.10;;;24.60;70.00;;;;;;5054549;28;20496;-82
2021/07/24 10:23:08;;;;;;;0.80;0.80;;;24.60;70.00;;;;;;5054463;28;20041;-82
2021/07/24 10:25:56;;;;;;;1.05;0.90;;;24.70;70.00;;;;;;5053901;28;20025;-82
2021/07/24 10:28:50;;;;;;;1.15;1.05;;;24.70;70.00;;;;;;5054266;28;20543;-82
2021/07/24 10:31:26;;;;;;;1.60;1.00;;;24.60;69.90;;;;;;5044679;28;20044;-82
2021/07/24 10:34:01;;;;;;;1.40;1.25;;;24.60;70.00;;;;;;5054876;28;20032;-81
2021/07/24 10:36:41;;;;;;;1.77;1.40;;;24.70;69.90;;;;;;5054050;28;20043;-82
2021/07/24 10:39:10;;;;;;;1.55;1.45;;;24.70;69.80;;;;;;5053710;28;20023;-82
2021/07/24 10:41:40;;;;;;;1.40;1.30;;;24.70;69.80;;;;;;5054161;28;20123;-82
2021/07/24 10:44:08;;;;;;;1.25;1.13;;;24.80;69.70;;;;;;5053908;28;20498;-81
2021/07/24 10:46:45;;;;;;;1.80;1.30;;;24.80;69.80;;;;;;5053986;28;20021;-82
2021/07/24 10:49:22;;;;;;;1.65;1.45;;;24.80;69.70;;;;;;5036097;28;20473;-82
2021/07/24 10:52:04;;;;;;;1.67;1.13;;;24.80;69.80;;;;;;5053876;28;20053;-82
2021/07/24 10:54:50;;;;;;;1.17;1.08;;;24.70;69.70;;;;;;5053283;28;20025;-82
2021/07/24 10:57:45;;;;;;;1.15;1.00;;;24.70;70.00;;;;;;5053112;28;20254;-81
2021/07/24 11:00:35;;;;;;;2.00;1.40;;;24.60;70.10;;;;;;5053662;28;20017;-81
2021/07/24 11:03:00;;;;;;;1.00;0.88;;;24.60;70.00;;;;;;5043683;28;20045;-81
2021/07/24 11:05:28;;;;;;;1.52;1.38;;;24.50;70.20;;;;;;5053741;28;20020;-81
2021/07/24 11:07:57;;;;;;;1.70;1.40;;;24.50;70.30;;;;;;5053029;28;20024;-82
2021/07/24 11:10:23;;;;;;;1.98;1.30;;;24.40;70.20;;;;;;5053663;28;20021;-82
2021/07/24 11:12:49;;;;;;;1.58;1.48;;;24.40;70.40;;;;;;5053504;28;20017;-82
2021/07/24 11:15:20;;;;;;;1.83;1.48;;;24.30;70.40;;;;;;5053590;28;20488;-82
2021/07/24 11:18:18;;;;;;;2.45;1.85;;;24.20;70.60;;;;;;5053363;28;20485;-81
2021/07/24 11:20:48;;;;;;;1.85;1.40;;;24.10;70.70;;;;;;5052568;28;20029;-81
2021/07/24 11:23:13;;;;;;;;;;;24.00;70.80;;;;;;5053284;28;20032;-81
2021/07/24 11:25:40;;;;;;;2.03;1.35;;;23.90;70.80;;;;;;5053337;28;19905;-82
2021/07/24 11:28:06;;;;;;;1.63;1.30;;;23.90;70.80;;;;;;5053323;28;20099;-81
2021/07/24 11:30:32;;;;;;;1.52;1.10;;;23.90;70.70;;;;;;5052986;28;20029;-81
2021/07/24 11:32:58;;;;;;;1.67;1.40;;;23.90;70.80;;;;;;5053141;28;20020;-81
2021/07/24 11:35:29;;;;;;;1.23;1.13;;;23.90;70.60;;;;;;5053206;28;20033;-81
2021/07/24 11:37:55;;;;;;;1.35;1.25;;;24.00;70.60;;;;;;5053021;28;20132;-82
2021/07/24 11:40:23;;;;;;;1.50;1.33;;;24.00;70.60;;;;;;5053184;28;20489;-82
2021/07/24 11:43:00;;;;;;;1.30;1.20;;;24.00;70.50;;;;;;5053136;28;20040;-82
2021/07/24 11:45:28;;;;;;;1.63;1.27;;;24.00;70.50;;;;;;5034997;28;20025;-81
2021/07/24 11:48:09;;;;;;;1.48;1.35;;;24.00;70.50;;;;;;5053179;28;20025;-82
2021/07/24 11:50:35;;;;;;;2.33;1.80;;;24.10;70.40;;;;;;5052491;28;20351;-81
2021/07/24 11:53:03;;;;;;;1.80;1.70;;;24.00;70.40;;;;;;5053117;28;20029;-81
2021/07/24 11:55:30;;;;;;;1.83;1.40;;;24.10;70.40;;;;;;5053139;28;20043;-81
2021/07/24 11:58:08;;;;;;;1.63;1.42;;;24.00;70.30;;;;;;5035200;28;20159;-81
2021/07/24 12:00:40;;;;;;;1.85;1.52;;;24.10;70.40;;;;;;5052969;28;20100;-82
2021/07/24 12:03:29;;;;;;;0.95;0.90;;;24.10;70.50;;;;;;5052944;28;20040;-82
2021/07/24 12:06:01;;;;;;;1.40;1.15;;;24.10;70.40;;;;;;5052487;28;20025;-81
2021/07/24 12:08:28;;;;;;;1.67;1.27;;;24.20;70.50;;;;;;5035126;28;20017;-82
2021/07/24 12:10:54;;;;;;;1.52;1.30;;;24.20;70.50;;;;;;5052886;28;20470;-81
2021/07/24 12:13:24;;;;;;;1.30;1.20;;;24.20;70.60;;;;;;5052984;28;20021;-81
2021/07/24 12:15:54;;;;;;;1.40;1.30;;;24.20;70.60;;;;;;5052810;28;20032;-81
2021/07/24 12:18:19;;;;;;;1.58;1.48;;;24.10;70.60;;;;;;5052820;28;20025;-81
2021/07/24 12:20:45;;;;;;;2.03;1.65;;;24.00;70.70;;;;;;5052524;28;20171;-82
2021/07/24 12:23:23;;;;;;;1.45;1.35;;;24.00;70.90;;;;;;5052612;28;20029;-81
2021/07/24 12:26:09;;;;;;;1.58;1.40;;;24.00;70.80;;;;;;5052814;28;20151;-81
2021/07/24 12:28:34;;;;;;;1.88;1.50;;;23.90;70.80;;;;;;5052206;28;20043;-81
2021/07/24 12:31:19;;;;;;;1.40;1.30;;;23.90;71.00;;;;;;5052542;28;20104;-81
2021/07/24 12:33:45;;;;;;;1.58;1.35;;;23.90;71.10;;;;;;5056566;28;20024;-81
2021/07/24 12:36:12;;;;;;;1.52;1.15;;;23.80;71.20;;;;;;5056177;28;20102;-81
2021/07/24 12:38:37;;;;;;;1.25;1.10;;;23.80;71.20;;;;;;5056448;28;20021;-82
2021/07/24 12:41:04;;;;;;;1.08;0.98;;;23.80;71.20;;;;;;5056428;28;20100;-82
2021/07/24 12:43:31;;;;;;;1.83;1.48;;;23.80;71.10;;;;;;5056399;28;20037;-82
2021/07/24 12:46:15;;;;;;;1.73;1.52;;;23.80;71.00;;;;;;5038204;28;20041;-81
2021/07/24 12:48:46;;;;;;;1.52;1.23;;;23.90;71.00;;;;;;5038055;28;20017;-81
2021/07/24 12:51:16;;;;;;;1.42;1.05;;;23.90;71.00;;;;;;5055961;28;20398;-81
2021/07/24 12:53:50;;;;;;;2.05;1.60;;;24.00;70.90;;;;;;5038165;28;20477;-82